Time;durP1;ratioP1;P1;durP2;ratioP2;P2;SDS_P1;SDS_P2;PMS_P1;PMS_P2;Temp;Humidity;BMP_temperature;BMP_pressure;BME280_temperature;BME280_humidity;BME280_pressure;Samples;Min_cycle;Max_cycle;Signal;HPM_P1;HPM_P2
2023/03/31 00:02:20;;;;;;;;;;;9.00;99.90;;;;;;5028458;28;20049;-77
2023/03/31 00:04:51;;;;;;;14.10;9.90;;;8.90;99.90;;;;;;5029114;28;19916;-77
2023/03/31 00:07:20;;;;;;;17.27;10.68;;;8.90;99.90;;;;;;5044297;28;20049;-77
2023/03/31 00:09:47;;;;;;;17.73;10.95;;;8.80;99.90;;;;;;5028901;28;20032;-77
2023/03/31 00:12:14;;;;;;;16.42;10.65;;;8.80;99.90;;;;;;5028950;28;20021;-77
2023/03/31 00:14:41;;;;;;;15.80;10.80;;;8.80;99.90;;;;;;5028842;28;20410;-76
2023/03/31 00:17:08;;;;;;;18.15;11.25;;;8.80;99.90;;;;;;5028797;28;20479;-78
2023/03/31 00:19:34;;;;;;;18.92;11.45;;;8.70;99.90;;;;;;5027786;28;20045;-77
2023/03/31 00:22:00;;;;;;;15.07;10.15;;;8.70;99.90;;;;;;5028770;28;20075;-77
2023/03/31 00:24:31;;;;;;;18.25;10.63;;;8.70;99.90;;;;;;5027257;28;20020;-77
2023/03/31 00:27:04;;;;;;;24.00;13.05;;;8.70;99.90;;;;;;5028481;28;20033;-76
2023/03/31 00:29:30;;;;;;;22.83;12.80;;;8.60;99.90;;;;;;5028457;28;20025;-77
2023/03/31 00:31:58;;;;;;;;;;;8.60;99.90;;;;;;5029111;28;20033;-77
2023/03/31 00:34:24;;;;;;;21.83;13.63;;;8.70;99.90;;;;;;5043943;28;19945;-77
2023/03/31 00:36:50;;;;;;;19.42;12.23;;;8.60;99.90;;;;;;5028488;28;20046;-77
2023/03/31 00:39:17;;;;;;;;;;;8.60;99.90;;;;;;5028875;28;20040;-76
2023/03/31 00:41:43;;;;;;;19.65;11.95;;;8.60;99.90;;;;;;5043319;28;19912;-77
2023/03/31 00:44:13;;;;;;;20.88;12.60;;;8.60;99.90;;;;;;5027027;28;20572;-77
2023/03/31 00:46:55;;;;;;;17.17;11.63;;;8.60;99.90;;;;;;5026862;28;20029;-77
2023/03/31 00:49:26;;;;;;;20.15;12.65;;;8.70;99.90;;;;;;5026669;28;20029;-76
2023/03/31 00:51:58;;;;;;;21.73;13.50;;;8.70;99.90;;;;;;5028411;28;20021;-77
2023/03/31 00:54:26;;;;;;;19.40;11.63;;;8.60;99.90;;;;;;5028412;28;20025;-77
2023/03/31 00:56:54;;;;;;;21.33;13.82;;;8.70;99.90;;;;;;5028160;28;20036;-78
2023/03/31 00:59:26;;;;;;;24.70;15.07;;;8.70;99.90;;;;;;5028170;28;20695;-76
2023/03/31 01:01:53;;;;;;;23.50;15.02;;;8.70;99.90;;;;;;5028170;28;20042;-77
2023/03/31 01:04:21;;;;;;;26.15;15.65;;;8.70;99.90;;;;;;5028069;28;20410;-77
2023/03/31 01:07:03;;;;;;;25.20;17.15;;;8.70;99.90;;;;;;5028309;28;20104;-76
2023/03/31 01:09:33;;;;;;;23.02;16.42;;;8.80;99.90;;;;;;5028171;28;20026;-77
2023/03/31 01:12:04;;;;;;;20.67;14.52;;;8.80;99.90;;;;;;5028595;28;20509;-78
2023/03/31 01:14:30;;;;;;;26.45;16.08;;;8.70;99.90;;;;;;5028135;28;20055;-78
2023/03/31 01:16:56;;;;;;;22.88;15.93;;;8.70;99.90;;;;;;5027132;28;20375;-77
2023/03/31 01:19:29;;;;;;;;;;;8.60;99.90;;;;;;5028441;28;20533;-77
2023/03/31 01:22:27;;;;;;;26.20;17.70;;;8.60;99.90;;;;;;5043293;28;19909;-77
2023/03/31 01:25:15;;;;;;;25.95;17.52;;;8.60;99.90;;;;;;5028289;28;20046;-77
2023/03/31 01:28:13;;;;;;;28.70;18.52;;;8.60;99.90;;;;;;5027940;28;20076;-77
2023/03/31 01:31:18;;;;;;;27.08;18.02;;;8.60;99.90;;;;;;5025940;28;20068;-77
2023/03/31 01:34:27;;;;;;;24.45;16.00;;;8.60;99.90;;;;;;5026436;28;20042;-76
2023/03/31 01:37:13;;;;;;;26.35;17.20;;;8.50;99.90;;;;;;5027841;28;20064;-77
2023/03/31 01:40:01;;;;;;;30.57;17.63;;;8.40;99.90;;;;;;5026656;28;20571;-77
2023/03/31 01:42:30;;;;;;;23.73;15.88;;;8.50;99.90;;;;;;5027688;28;20291;-77
2023/03/31 01:45:01;;;;;;;28.92;17.35;;;8.40;99.90;;;;;;5026638;28;20071;-77
2023/03/31 01:47:39;;;;;;;25.52;16.83;;;8.50;99.90;;;;;;5027662;28;20030;-78
2023/03/31 01:50:22;;;;;;;28.02;16.92;;;8.40;99.90;;;;;;5028088;28;20046;-77
2023/03/31 01:53:36;;;;;;;29.50;16.45;;;8.50;99.90;;;;;;5028592;28;20022;-78
2023/03/31 01:56:18;;;;;;;27.38;16.40;;;8.50;99.90;;;;;;5031853;28;20024;-77
2023/03/31 01:58:59;;;;;;;33.20;17.17;;;8.50;99.90;;;;;;5030224;28;20038;-77
2023/03/31 02:01:37;;;;;;;27.70;17.95;;;8.50;99.90;;;;;;5031250;28;20040;-78
2023/03/31 02:04:11;;;;;;;25.50;17.30;;;8.50;99.90;;;;;;5029993;28;20096;-77
2023/03/31 02:06:40;;;;;;;28.60;17.30;;;8.40;99.90;;;;;;5031208;28;20030;-78
2023/03/31 02:09:11;;;;;;;33.22;18.10;;;8.40;99.90;;;;;;5031261;28;20033;-77
2023/03/31 02:11:40;;;;;;;24.67;17.30;;;8.40;99.90;;;;;;5031123;28;20056;-78
2023/03/31 02:14:10;;;;;;;22.58;15.70;;;8.30;99.90;;;;;;5030886;28;20095;-77
2023/03/31 02:16:40;;;;;;;23.35;16.98;;;8.30;99.90;;;;;;5030301;28;20156;-77
2023/03/31 02:19:09;;;;;;;27.63;17.52;;;8.20;99.90;;;;;;5031893;28;20648;-77
2023/03/31 02:21:38;;;;;;;28.63;16.33;;;8.10;99.90;;;;;;5030673;28;20494;-77
2023/03/31 02:24:08;;;;;;;25.92;17.27;;;8.10;99.90;;;;;;5031018;28;20026;-77
2023/03/31 02:27:09;;;;;;;29.58;18.42;;;8.10;99.90;;;;;;5030779;28;20033;-78
2023/03/31 02:29:35;;;;;;;23.55;16.92;;;8.10;99.90;;;;;;5028801;28;20041;-78
2023/03/31 02:32:13;;;;;;;;;;;8.00;99.90;;;;;;5029876;28;20049;-77
2023/03/31 02:34:38;;;;;;;25.58;17.40;;;8.00;99.90;;;;;;5046016;28;20020;-77
2023/03/31 02:37:05;;;;;;;;;;;8.00;99.90;;;;;;5029169;28;20061;-77
2023/03/31 02:39:34;;;;;;;27.90;17.77;;;7.90;99.90;;;;;;5030540;28;19905;-77
2023/03/31 02:42:05;;;;;;;26.67;17.35;;;7.90;99.90;;;;;;5030621;28;20049;-77
2023/03/31 02:44:33;;;;;;;31.23;18.30;;;7.80;99.90;;;;;;5029198;28;20029;-77
2023/03/31 02:46:59;;;;;;;23.65;16.88;;;7.70;99.90;;;;;;5029033;28;20033;-78
2023/03/31 02:49:24;;;;;;;;;;;7.70;99.90;;;;;;5030632;28;20592;-77
2023/03/31 02:52:02;;;;;;;27.00;18.05;;;7.60;99.90;;;;;;5030365;28;19940;-77
2023/03/31 02:54:36;;;;;;;29.55;18.17;;;7.60;99.90;;;;;;5030412;28;20032;-77
2023/03/31 02:57:23;;;;;;;26.60;17.92;;;7.60;99.90;;;;;;5030198;28;20398;-77
2023/03/31 03:00:13;;;;;;;33.03;21.42;;;7.60;99.90;;;;;;5029051;28;20828;-76
2023/03/31 03:02:59;;;;;;;29.58;18.35;;;7.60;99.90;;;;;;5029900;28;20112;-77
2023/03/31 03:05:33;;;;;;;25.10;18.10;;;7.50;99.90;;;;;;5029605;28;20025;-77
2023/03/31 03:08:08;;;;;;;32.38;18.65;;;7.40;99.90;;;;;;5030020;28;20044;-77
2023/03/31 03:10:48;;;;;;;27.20;18.33;;;7.30;99.90;;;;;;5029958;28;20033;-77
2023/03/31 03:13:34;;;;;;;29.38;19.70;;;7.30;99.90;;;;;;5029980;28;20013;-77
2023/03/31 03:16:09;;;;;;;31.17;20.60;;;7.20;99.90;;;;;;5029910;28;20060;-77
2023/03/31 03:18:35;;;;;;;28.85;20.48;;;7.10;99.90;;;;;;5028625;28;20052;-77
2023/03/31 03:21:01;;;;;;;31.27;20.65;;;7.10;99.90;;;;;;5030047;28;20134;-77
2023/03/31 03:23:27;;;;;;;;;;;7.00;99.90;;;;;;5028661;28;20518;-79
2023/03/31 03:25:53;;;;;;;35.10;24.15;;;7.00;99.90;;;;;;5029893;28;20429;-76
2023/03/31 03:28:18;;;;;;;;;;;6.90;99.90;;;;;;5030158;28;20032;-77
2023/03/31 03:30:50;;;;;;;42.15;24.90;;;6.90;99.90;;;;;;5029847;28;20313;-76
2023/03/31 03:33:15;;;;;;;48.20;28.25;;;6.90;99.90;;;;;;5028459;28;20089;-77
2023/03/31 03:35:41;;;;;;;;;;;6.90;99.90;;;;;;5029940;28;20505;-77
2023/03/31 03:38:07;;;;;;;49.42;30.42;;;6.90;99.90;;;;;;5045155;28;19905;-77
2023/03/31 03:40:33;;;;;;;;;;;6.90;99.90;;;;;;5029893;28;20025;-77
2023/03/31 03:42:58;;;;;;;50.15;30.73;;;7.00;99.90;;;;;;5029540;28;19963;-76
2023/03/31 03:45:24;;;;;;;;;;;7.00;99.90;;;;;;5029648;28;20021;-77
2023/03/31 03:47:49;;;;;;;43.45;28.58;;;7.00;99.90;;;;;;5029312;28;19916;-77
2023/03/31 03:50:15;;;;;;;48.00;28.92;;;6.90;99.90;;;;;;5028359;28;20422;-77
2023/03/31 03:52:41;;;;;;;40.47;26.90;;;6.90;99.90;;;;;;5029310;28;20446;-77
2023/03/31 03:55:07;;;;;;;;;;;6.80;99.90;;;;;;5029535;28;20021;-77
2023/03/31 03:57:32;;;;;;;50.17;29.90;;;6.80;99.90;;;;;;5029073;28;20271;-77
2023/03/31 03:59:58;;;;;;;;;;;6.80;99.90;;;;;;5028667;28;20037;-77
2023/03/31 04:02:24;;;;;;;45.00;25.42;;;6.90;99.90;;;;;;5044527;28;19998;-77
2023/03/31 04:04:49;;;;;;;54.33;32.92;;;6.90;99.90;;;;;;5029140;28;20504;-77
2023/03/31 04:07:16;;;;;;;;;;;6.90;99.90;;;;;;5028521;28;20033;-77
2023/03/31 04:09:41;;;;;;;42.47;27.90;;;6.90;99.90;;;;;;5028734;28;19912;-76
2023/03/31 04:12:07;;;;;;;;;;;6.90;99.90;;;;;;5029211;28;20375;-78
2023/03/31 04:14:33;;;;;;;41.97;26.27;;;6.90;99.90;;;;;;5028822;28;19932;-77
2023/03/31 04:16:58;;;;;;;;;;;6.80;99.90;;;;;;5027214;28;20029;-77
2023/03/31 04:19:26;;;;;;;40.65;25.25;;;6.80;99.90;;;;;;5043951;28;19935;-77
2023/03/31 04:21:57;;;;;;;45.10;28.50;;;6.80;99.90;;;;;;5027698;28;20037;-76
2023/03/31 04:24:31;;;;;;;52.67;33.42;;;6.80;99.90;;;;;;5028873;28;20022;-77
2023/03/31 04:26:58;;;;;;;49.22;33.85;;;6.80;99.90;;;;;;5028737;28;20065;-77
2023/03/31 04:29:25;;;;;;;47.58;32.75;;;6.90;99.90;;;;;;5028627;28;20028;-77
2023/03/31 04:31:57;;;;;;;49.88;33.10;;;7.10;99.90;;;;;;5028333;28;20025;-75
2023/03/31 04:34:25;;;;;;;50.30;31.98;;;7.10;99.90;;;;;;5028459;28;20025;-76
2023/03/31 04:36:55;;;;;;;105.00;56.22;;;7.20;99.90;;;;;;5027910;28;20067;-76
2023/03/31 04:39:29;;;;;;;195.88;103.03;;;7.20;99.90;;;;;;5028317;28;20021;-77
2023/03/31 04:41:59;;;;;;;109.65;62.15;;;7.20;99.90;;;;;;5028413;28;20112;-77
2023/03/31 04:44:25;;;;;;;74.95;44.90;;;7.20;99.90;;;;;;5026788;28;20032;-77
2023/03/31 04:46:52;;;;;;;58.95;37.60;;;7.30;99.90;;;;;;5026681;28;20417;-77
2023/03/31 04:49:17;;;;;;;;;;;7.30;99.90;;;;;;5027597;28;20025;-77
2023/03/31 04:51:43;;;;;;;39.13;26.02;;;7.30;99.90;;;;;;5043884;28;19909;-77
2023/03/31 04:54:09;;;;;;;38.30;26.45;;;7.40;99.90;;;;;;5028463;28;20034;-76
2023/03/31 04:56:35;;;;;;;;;;;7.50;99.90;;;;;;5028711;28;20029;-76
2023/03/31 04:59:02;;;;;;;30.38;23.38;;;7.80;99.90;;;;;;5028393;28;19912;-76
2023/03/31 05:01:32;;;;;;;31.02;23.25;;;8.30;99.90;;;;;;5027741;28;20021;-76
2023/03/31 05:03:58;;;;;;;28.67;21.70;;;8.90;99.90;;;;;;5028119;28;20514;-77
2023/03/31 05:06:24;;;;;;;29.10;21.02;;;9.30;99.90;;;;;;5027795;28;20036;-76
2023/03/31 05:08:50;;;;;;;;;;;9.40;99.90;;;;;;5027153;28;20026;-76
2023/03/31 05:11:15;;;;;;;29.20;20.55;;;9.40;99.90;;;;;;5042942;28;19909;-77
2023/03/31 05:13:41;;;;;;;;;;;9.30;99.90;;;;;;5027044;28;20521;-76
2023/03/31 05:16:13;;;;;;;27.58;20.67;;;9.30;99.90;;;;;;5028189;28;19909;-76
2023/03/31 05:18:39;;;;;;;29.02;19.17;;;9.20;99.90;;;;;;5028097;28;20062;-76
2023/03/31 05:21:13;;;;;;;26.33;20.73;;;9.20;99.90;;;;;;5026410;28;20030;-75
2023/03/31 05:23:40;;;;;;;27.77;17.60;;;9.20;99.90;;;;;;5026270;28;20131;-74
2023/03/31 05:26:06;;;;;;;23.20;16.63;;;9.30;99.90;;;;;;5027720;28;20049;-76
2023/03/31 05:28:33;;;;;;;23.33;17.05;;;9.60;99.90;;;;;;5031360;28;20030;-76
2023/03/31 05:31:00;;;;;;;23.13;14.73;;;10.00;99.90;;;;;;5031776;28;20535;-77
2023/03/31 05:33:26;;;;;;;21.17;14.88;;;10.60;99.90;;;;;;5031625;28;20104;-77
2023/03/31 05:35:52;;;;;;;18.10;13.95;;;11.20;99.90;;;;;;5031413;28;20655;-77
2023/03/31 05:38:18;;;;;;;;;;;11.80;99.90;;;;;;5031777;28;20100;-77
2023/03/31 05:40:43;;;;;;;14.82;10.60;;;12.40;99.90;;;;;;5046990;28;20055;-76
2023/03/31 05:43:09;;;;;;;;;;;12.90;99.90;;;;;;5030565;28;20045;-78
2023/03/31 05:45:35;;;;;;;15.00;9.40;;;13.40;99.90;;;;;;5031205;28;19909;-78
2023/03/31 05:48:01;;;;;;;13.60;8.50;;;13.70;99.90;;;;;;5031390;28;20167;-77
2023/03/31 05:50:26;;;;;;;;;;;14.20;99.90;;;;;;5031671;28;20505;-76
2023/03/31 05:52:52;;;;;;;11.88;7.25;;;14.40;99.90;;;;;;5046838;28;20274;-76
2023/03/31 05:55:17;;;;;;;10.32;6.63;;;14.70;99.90;;;;;;5031296;28;20060;-75
2023/03/31 05:57:43;;;;;;;13.57;7.68;;;14.90;99.90;;;;;;5030813;28;20491;-76
2023/03/31 06:00:10;;;;;;;9.32;6.10;;;15.10;99.90;;;;;;5031139;28;20029;-76
2023/03/31 06:02:36;;;;;;;8.77;6.28;;;15.30;99.90;;;;;;5030751;28;20042;-76
2023/03/31 06:05:02;;;;;;;11.32;6.78;;;15.50;99.90;;;;;;5031014;28;20025;-75
2023/03/31 06:07:28;;;;;;;8.90;4.90;;;15.60;99.90;;;;;;5045939;28;20371;-76
2023/03/31 06:09:54;;;;;;;6.80;4.40;;;15.70;99.90;;;;;;5030882;28;20117;-75
2023/03/31 06:12:20;;;;;;;5.13;3.45;;;15.90;99.90;;;;;;5046547;28;20124;-75
2023/03/31 06:14:45;;;;;;;6.28;3.92;;;16.10;99.40;;;;;;5030914;28;20482;-76
2023/03/31 06:17:11;;;;;;;4.38;2.60;;;16.40;97.20;;;;;;5029584;28;20029;-76
2023/03/31 06:19:37;;;;;;;4.47;2.83;;;16.70;96.50;;;;;;5030685;28;20030;-77
2023/03/31 06:22:02;;;;;;;5.20;2.55;;;17.20;93.40;;;;;;5045994;28;20112;-77
2023/03/31 06:24:28;;;;;;;7.00;2.88;;;17.70;91.20;;;;;;5030879;28;20076;-75
2023/03/31 06:26:54;;;;;;;4.53;2.55;;;18.00;89.30;;;;;;5045822;28;20021;-77
2023/03/31 06:29:20;;;;;;;7.55;2.75;;;18.30;86.30;;;;;;5029151;28;20049;-77
2023/03/31 06:31:45;;;;;;;5.40;3.10;;;18.50;83.90;;;;;;5029281;28;20041;-76
2023/03/31 06:34:11;;;;;;;5.50;2.40;;;18.90;80.40;;;;;;5045992;28;20034;-77
2023/03/31 06:36:37;;;;;;;5.43;2.78;;;19.20;78.20;;;;;;5030257;28;20468;-77
2023/03/31 06:39:02;;;;;;;6.80;2.50;;;19.50;76.90;;;;;;5029941;28;20460;-78
2023/03/31 06:41:28;;;;;;;5.65;2.20;;;19.80;74.10;;;;;;5030096;28;20624;-78
2023/03/31 06:43:54;;;;;;;6.15;2.40;;;20.10;73.00;;;;;;5030359;28;20124;-77
2023/03/31 06:46:20;;;;;;;5.15;2.78;;;20.50;72.00;;;;;;5045674;28;20025;-77
2023/03/31 06:48:45;;;;;;;6.68;3.25;;;20.90;68.80;;;;;;5030116;28;20083;-76
2023/03/31 06:51:12;;;;;;;7.20;5.10;;;21.10;68.70;;;;;;5030394;28;20029;-78
2023/03/31 06:53:38;;;;;;;5.57;2.60;;;21.10;69.20;;;;;;5030103;28;20029;-79
2023/03/31 06:56:05;;;;;;;7.28;2.38;;;21.10;67.10;;;;;;5030073;28;20026;-78
2023/03/31 06:58:31;;;;;;;3.45;2.00;;;21.30;65.20;;;;;;5045340;28;20021;-77
2023/03/31 07:00:56;;;;;;;3.92;2.40;;;21.20;63.90;;;;;;5045321;28;20037;-78
2023/03/31 07:03:23;;;;;;;4.97;2.58;;;21.10;63.70;;;;;;5044915;28;20571;-77
2023/03/31 07:05:51;;;;;;;3.95;1.98;;;21.00;64.40;;;;;;5045422;28;20129;-76
2023/03/31 07:08:18;;;;;;;6.65;2.10;;;20.90;64.60;;;;;;5029888;28;20023;-77
2023/03/31 07:10:47;;;;;;;5.03;1.42;;;21.10;63.70;;;;;;5045426;28;20033;-77
2023/03/31 07:13:14;;;;;;;3.67;2.13;;;21.20;63.00;;;;;;5028513;28;20033;-77
2023/03/31 07:15:41;;;;;;;3.72;1.58;;;21.30;62.60;;;;;;5029387;28;20040;-78
2023/03/31 07:18:08;;;;;;;6.10;2.00;;;21.30;61.20;;;;;;5044583;28;20041;-77
2023/03/31 07:20:34;;;;;;;3.63;1.60;;;21.40;62.10;;;;;;5029129;28;20056;-78
2023/03/31 07:23:03;;;;;;;6.82;1.67;;;21.70;62.10;;;;;;5029464;28;20037;-78
2023/03/31 07:25:29;;;;;;;4.45;1.60;;;22.30;60.60;;;;;;5029737;28;20052;-77
2023/03/31 07:27:55;;;;;;;3.67;1.58;;;22.60;59.10;;;;;;5030012;28;20453;-78
2023/03/31 07:30:21;;;;;;;5.15;1.80;;;22.00;58.70;;;;;;5029793;28;20071;-77
2023/03/31 07:32:49;;;;;;;6.20;1.90;;;21.80;60.20;;;;;;5029428;28;20532;-78
2023/03/31 07:35:16;;;;;;;4.47;2.92;;;21.90;59.50;;;;;;5029387;28;20449;-77
2023/03/31 07:37:44;;;;;;;4.75;1.35;;;22.00;59.40;;;;;;5044044;28;20067;-78
2023/03/31 07:40:14;;;;;;;3.38;1.30;;;22.60;57.00;;;;;;5029377;28;20033;-78
2023/03/31 07:42:41;;;;;;;3.55;1.55;;;23.10;55.80;;;;;;5029060;28;20069;-77
2023/03/31 07:45:08;;;;;;;4.05;1.25;;;23.10;55.80;;;;;;5044393;28;20029;-77
2023/03/31 07:47:34;;;;;;;4.25;1.30;;;22.60;56.20;;;;;;5029200;28;20032;-78
2023/03/31 07:50:00;;;;;;;3.20;1.10;;;22.50;55.50;;;;;;5043724;28;20032;-77
2023/03/31 07:52:26;;;;;;;2.08;0.73;;;22.30;55.80;;;;;;5027420;28;20029;-75
2023/03/31 07:54:51;;;;;;;4.38;0.75;;;22.30;55.80;;;;;;5044181;28;20056;-77
2023/03/31 07:57:18;;;;;;;2.72;0.80;;;22.30;56.00;;;;;;5028913;28;20036;-78
2023/03/31 07:59:47;;;;;;;2.80;0.50;;;22.40;55.40;;;;;;5028988;28;20105;-76
2023/03/31 08:02:14;;;;;;;3.58;0.68;;;22.40;55.50;;;;;;5027241;28;20025;-78
2023/03/31 08:04:41;;;;;;;3.55;0.70;;;22.10;55.40;;;;;;5044275;28;20520;-77
2023/03/31 08:07:08;;;;;;;2.63;0.80;;;22.20;56.00;;;;;;5028972;28;20045;-78
2023/03/31 08:09:34;;;;;;;2.65;0.95;;;22.50;55.60;;;;;;5028479;28;20038;-79
2023/03/31 08:11:59;;;;;;;5.00;1.33;;;22.50;55.10;;;;;;5044171;28;20033;-78
2023/03/31 08:14:25;;;;;;;4.60;1.30;;;22.80;55.90;;;;;;5028552;28;20055;-77
2023/03/31 08:16:54;;;;;;;3.45;1.30;;;23.40;56.60;;;;;;5028666;28;20029;-78
2023/03/31 08:19:21;;;;;;;5.28;0.75;;;24.00;54.00;;;;;;5028427;28;20029;-77
2023/03/31 08:21:46;;;;;;;2.70;0.90;;;24.40;52.40;;;;;;5028571;28;20018;-77
2023/03/31 08:24:12;;;;;;;4.45;1.10;;;24.70;50.60;;;;;;5028716;28;20040;-78
2023/03/31 08:26:40;;;;;;;3.80;0.80;;;24.80;50.30;;;;;;5043607;28;20332;-77
2023/03/31 08:29:05;;;;;;;4.22;1.30;;;25.00;49.40;;;;;;5028517;28;20595;-78
2023/03/31 08:31:31;;;;;;;2.97;1.15;;;25.00;50.30;;;;;;5028492;28;20021;-78
2023/03/31 08:33:57;;;;;;;5.10;1.13;;;25.20;50.20;;;;;;5043674;28;20037;-78
2023/03/31 08:36:24;;;;;;;3.78;1.23;;;25.70;48.90;;;;;;5043495;28;20084;-77
2023/03/31 08:38:50;;;;;;;3.60;1.00;;;25.10;49.40;;;;;;5028177;28;20087;-78
2023/03/31 08:41:27;;;;;;;2.15;0.98;;;24.80;47.90;;;;;;5043508;28;20551;-78
2023/03/31 08:43:55;;;;;;;2.92;0.80;;;24.40;49.70;;;;;;5028493;28;20406;-77
2023/03/31 08:46:21;;;;;;;4.22;0.93;;;24.30;49.60;;;;;;5028198;28;20028;-79
2023/03/31 08:48:53;;;;;;;3.60;1.30;;;24.50;50.00;;;;;;5028398;28;20034;-77
2023/03/31 08:51:27;;;;;;;4.90;1.40;;;24.50;49.80;;;;;;5043625;28;20032;-76
2023/03/31 08:54:03;;;;;;;2.97;1.45;;;24.10;51.90;;;;;;5043358;28;20025;-77
2023/03/31 08:56:30;;;;;;;;;;;24.10;51.50;;;;;;5028504;28;20018;-76
2023/03/31 08:59:00;;;;;;;3.42;1.13;;;24.10;52.20;;;;;;5043365;28;19909;-77
2023/03/31 09:01:39;;;;;;;6.00;1.30;;;24.30;51.90;;;;;;5027995;28;20017;-79
2023/03/31 09:04:42;;;;;;;2.25;1.08;;;24.40;51.70;;;;;;5047584;28;20119;-79
2023/03/31 09:07:34;;;;;;;3.88;1.20;;;24.70;50.70;;;;;;5032380;28;20033;-76
2023/03/31 09:10:12;;;;;;;3.00;1.02;;;24.90;50.90;;;;;;5047445;28;20072;-77
2023/03/31 09:13:01;;;;;;;4.10;1.58;;;25.00;51.00;;;;;;5047236;28;20040;-77
2023/03/31 09:15:49;;;;;;;5.38;0.90;;;25.20;49.90;;;;;;5031821;28;20025;-77
2023/03/31 09:18:27;;;;;;;3.53;1.42;;;25.70;48.90;;;;;;5030687;28;20025;-77
2023/03/31 09:21:03;;;;;;;6.50;1.10;;;25.90;48.10;;;;;;5047319;28;20526;-78
2023/03/31 09:23:37;;;;;;;6.20;1.33;;;25.90;48.50;;;;;;5046992;28;20041;-79
2023/03/31 09:26:04;;;;;;;6.00;1.13;;;26.10;47.10;;;;;;5031367;28;20030;-78
2023/03/31 09:28:38;;;;;;;4.22;1.17;;;25.90;47.80;;;;;;5031843;28;20059;-78
2023/03/31 09:31:12;;;;;;;4.28;0.98;;;25.70;48.40;;;;;;5031210;28;20506;-76
2023/03/31 09:33:44;;;;;;;5.90;1.05;;;25.90;47.10;;;;;;5030891;28;20024;-76
2023/03/31 09:36:16;;;;;;;7.20;1.60;;;25.80;47.60;;;;;;5031212;28;20510;-78
2023/03/31 09:38:43;;;;;;;7.30;1.40;;;26.00;46.90;;;;;;5031610;28;20490;-79
2023/03/31 09:41:10;;;;;;;5.00;1.52;;;26.20;47.40;;;;;;5031270;28;20033;-78
2023/03/31 09:43:37;;;;;;;7.88;1.60;;;26.30;48.10;;;;;;5031307;28;20045;-79
2023/03/31 09:46:12;;;;;;;4.25;1.65;;;26.60;47.50;;;;;;5031819;28;20030;-77
2023/03/31 09:48:41;;;;;;;3.95;1.77;;;26.60;47.30;;;;;;5031515;28;20405;-78
2023/03/31 09:51:17;;;;;;;4.75;1.30;;;26.70;46.90;;;;;;5031842;28;20075;-78
2023/03/31 09:53:49;;;;;;;3.85;1.65;;;26.80;45.20;;;;;;5031135;28;20504;-77
2023/03/31 09:56:52;;;;;;;4.50;1.60;;;26.80;46.10;;;;;;5031258;28;20044;-79
2023/03/31 09:59:28;;;;;;;5.05;2.00;;;26.80;46.50;;;;;;5031390;28;20025;-78
2023/03/31 10:01:55;;;;;;;;;;;27.10;46.50;;;;;;5032032;28;20099;-78
2023/03/31 10:04:32;;;;;;;9.32;2.20;;;27.00;46.30;;;;;;5030490;28;19913;-78
2023/03/31 10:06:59;;;;;;;5.85;2.45;;;27.00;46.10;;;;;;5045675;28;20080;-77
2023/03/31 10:09:29;;;;;;;4.95;2.40;;;27.10;46.50;;;;;;5045609;28;20037;-78
2023/03/31 10:11:56;;;;;;;7.88;2.05;;;27.20;46.40;;;;;;5030671;28;20025;-77
2023/03/31 10:14:36;;;;;;;5.90;2.20;;;27.30;45.70;;;;;;5029622;28;20025;-79
2023/03/31 10:17:06;;;;;;;8.13;2.10;;;27.40;46.20;;;;;;5030475;28;20029;-77
2023/03/31 10:19:35;;;;;;;2.58;1.40;;;27.40;46.20;;;;;;5029852;28;20026;-79
2023/03/31 10:22:13;;;;;;;5.88;1.88;;;27.30;44.90;;;;;;5030340;28;20033;-78
2023/03/31 10:24:41;;;;;;;4.95;1.75;;;26.70;44.50;;;;;;5030451;28;20033;-77
2023/03/31 10:27:30;;;;;;;5.72;2.20;;;25.40;46.00;;;;;;5046268;28;20060;-77
2023/03/31 10:30:02;;;;;;;6.00;1.60;;;24.70;47.30;;;;;;5030083;28;20033;-78
2023/03/31 10:32:30;;;;;;;4.00;1.85;;;23.90;49.50;;;;;;5029704;28;20026;-77
2023/03/31 10:34:58;;;;;;;4.15;1.13;;;23.30;50.30;;;;;;5030343;28;20506;-76
2023/03/31 10:37:28;;;;;;;4.45;1.30;;;22.70;51.70;;;;;;5045165;28;20052;-79
2023/03/31 10:40:01;;;;;;;6.40;2.15;;;22.20;53.20;;;;;;5029995;28;20030;-79
2023/03/31 10:42:27;;;;;;;4.88;1.83;;;21.70;55.10;;;;;;5030460;28;20033;-78
2023/03/31 10:45:32;;;;;;;4.45;0.80;;;21.50;56.10;;;;;;5030280;28;20026;-78
2023/03/31 10:47:59;;;;;;;5.45;0.98;;;21.50;54.70;;;;;;5028939;28;20041;-77
2023/03/31 10:50:29;;;;;;;13.15;1.10;;;21.30;55.20;;;;;;5030195;28;20025;-78
2023/03/31 10:53:03;;;;;;;17.75;1.63;;;21.20;56.30;;;;;;5030336;28;20403;-78
2023/03/31 10:55:47;;;;;;;7.07;1.75;;;21.00;56.00;;;;;;5045158;28;20030;-78
2023/03/31 10:58:32;;;;;;;6.97;1.33;;;20.60;57.30;;;;;;5045522;28;20022;-78
2023/03/31 11:01:27;;;;;;;5.00;1.00;;;20.60;57.70;;;;;;5030354;28;20029;-78
2023/03/31 11:03:59;;;;;;;6.63;1.10;;;20.50;58.20;;;;;;5044993;28;20041;-78
2023/03/31 11:06:34;;;;;;;6.03;1.05;;;20.40;57.20;;;;;;5030057;28;20091;-78
2023/03/31 11:09:02;;;;;;;5.60;1.02;;;20.30;57.50;;;;;;5045480;28;20033;-78
2023/03/31 11:11:52;;;;;;;2.15;0.88;;;20.40;58.10;;;;;;5029644;28;20509;-78
2023/03/31 11:14:52;;;;;;;3.50;1.17;;;20.40;58.20;;;;;;5045399;28;20033;-78
2023/03/31 11:17:43;;;;;;;3.58;0.70;;;20.50;58.30;;;;;;5045242;28;20535;-78
2023/03/31 11:20:59;;;;;;;8.15;1.00;;;20.70;58.10;;;;;;5029961;28;20021;-78
2023/03/31 11:23:52;;;;;;;6.82;0.85;;;20.70;56.40;;;;;;5028466;28;20046;-78
2023/03/31 11:26:30;;;;;;;4.75;1.10;;;20.60;56.50;;;;;;5029132;28;20442;-78
2023/03/31 11:29:15;;;;;;;5.88;1.00;;;20.60;57.30;;;;;;5044766;28;20025;-77
2023/03/31 11:31:47;;;;;;;5.32;0.90;;;20.60;56.40;;;;;;5044370;28;20472;-77
2023/03/31 11:34:43;;;;;;;3.58;0.90;;;20.40;56.60;;;;;;5029313;28;20056;-77
2023/03/31 11:37:40;;;;;;;5.53;1.05;;;20.10;57.80;;;;;;5044500;28;20249;-78
2023/03/31 11:40:37;;;;;;;7.00;1.38;;;19.90;59.30;;;;;;5044523;28;20041;-76
2023/03/31 11:43:12;;;;;;;5.18;0.85;;;19.90;58.90;;;;;;5029033;28;20108;-77
2023/03/31 11:45:58;;;;;;;4.85;1.10;;;19.80;59.30;;;;;;5043942;28;20457;-78
2023/03/31 11:48:32;;;;;;;3.15;1.08;;;19.90;59.40;;;;;;5044618;28;20410;-77
2023/03/31 11:51:01;;;;;;;8.55;1.80;;;19.80;59.60;;;;;;5029254;28;20108;-76
2023/03/31 11:53:35;;;;;;;3.78;0.98;;;19.90;60.00;;;;;;5028587;28;20045;-78
2023/03/31 11:56:03;;;;;;;13.05;1.65;;;19.90;60.10;;;;;;5044282;28;20037;-78
2023/03/31 11:58:37;;;;;;;3.88;1.38;;;19.80;60.20;;;;;;5028802;28;20091;-77
2023/03/31 12:01:13;;;;;;;3.10;1.35;;;19.80;60.80;;;;;;5028946;28;20056;-78
2023/03/31 12:03:55;;;;;;;5.38;1.50;;;19.80;59.70;;;;;;5028074;28;20120;-78
2023/03/31 12:06:25;;;;;;;5.35;1.58;;;19.70;60.20;;;;;;5044003;28;20018;-77
2023/03/31 12:09:23;;;;;;;9.32;1.65;;;19.60;59.80;;;;;;5028788;28;20033;-77
2023/03/31 12:12:03;;;;;;;4.25;1.17;;;19.60;60.00;;;;;;5043900;28;20049;-78
2023/03/31 12:14:52;;;;;;;4.80;1.40;;;19.40;61.20;;;;;;5028672;28;20060;-78
2023/03/31 12:17:24;;;;;;;6.78;1.42;;;19.20;62.70;;;;;;5026973;28;20040;-77
2023/03/31 12:20:09;;;;;;;3.88;1.33;;;19.00;62.80;;;;;;5043670;28;20029;-77
2023/03/31 12:22:44;;;;;;;3.42;1.63;;;18.80;63.80;;;;;;5043324;28;20068;-77
2023/03/31 12:25:15;;;;;;;5.07;1.35;;;18.80;64.60;;;;;;5027945;28;20033;-77
2023/03/31 12:27:49;;;;;;;5.20;1.50;;;19.10;63.40;;;;;;5026967;28;20026;-78
2023/03/31 12:30:33;;;;;;;5.30;1.50;;;19.40;62.60;;;;;;5028513;28;20033;-78
2023/03/31 12:33:20;;;;;;;5.65;1.02;;;19.60;61.50;;;;;;5028474;28;20121;-77
2023/03/31 12:35:49;;;;;;;4.65;1.42;;;19.50;60.40;;;;;;5043357;28;20125;-75
2023/03/31 12:38:26;;;;;;;8.52;1.67;;;19.40;60.80;;;;;;5028047;28;20029;-76
2023/03/31 12:41:21;;;;;;;4.88;1.27;;;19.30;61.20;;;;;;5044025;28;20036;-76
2023/03/31 12:44:21;;;;;;;3.90;1.00;;;19.20;61.30;;;;;;5044112;28;20087;-76
2023/03/31 12:46:59;;;;;;;5.07;1.00;;;19.10;61.00;;;;;;5043489;28;20152;-76
2023/03/31 12:49:36;;;;;;;5.07;1.33;;;19.00;61.50;;;;;;5027638;28;20021;-76
2023/03/31 12:52:10;;;;;;;8.45;1.45;;;18.90;61.70;;;;;;5043162;28;20126;-75
2023/03/31 12:55:04;;;;;;;3.63;1.08;;;18.90;62.10;;;;;;5028275;28;20025;-76
2023/03/31 12:57:31;;;;;;;4.43;0.88;;;18.80;62.30;;;;;;5043111;28;20036;-76
2023/03/31 13:00:21;;;;;;;8.02;1.15;;;18.80;63.60;;;;;;5028233;28;20053;-78
2023/03/31 13:02:47;;;;;;;5.40;0.90;;;19.00;64.20;;;;;;5028028;28;20067;-76
2023/03/31 13:05:35;;;;;;;3.55;0.98;;;19.40;61.30;;;;;;5043200;28;20433;-78
2023/03/31 13:08:01;;;;;;;3.22;0.85;;;19.70;58.80;;;;;;5028165;28;20068;-77
2023/03/31 13:10:30;;;;;;;3.40;0.85;;;19.90;58.40;;;;;;5027715;28;20025;-77
2023/03/31 13:13:10;;;;;;;3.33;0.80;;;20.10;58.80;;;;;;5043139;28;20045;-77
2023/03/31 13:15:36;;;;;;;4.30;0.85;;;20.40;58.20;;;;;;5027544;28;20097;-78
2023/03/31 13:18:05;;;;;;;4.85;0.90;;;20.40;58.10;;;;;;5027773;28;20171;-77